Irini — SYZA — position and weather

sailwx.info

Track history (hours):
 
Tides and Currents Weather Stations Pressure Air Temp Water Temp Dewpoint Dewpoint Depression Visibility Wind Speed Wind Dir Waves Ship Positions

Irini

Last reported at 2014-Nov-26 13:25 UTC. Time now 2014-Nov-26 18:42 UTC.
Position N 37°51' E 024°29'.

Length 137 m; draft 7.3 m.

Type: Ship (hazmat cat A). MMSI: 240052000.

Date/timePositionNaut miles runAvg speedWind from/ knotsBaromVisibWave heightAir tempDewpointWater temp
2014-Nov-26 13:25N 37°51' E 024°29'1110.3
2014-Nov-26 12:23N 37°44' E 024°19'1010.4
2014-Nov-26 11:23N 37°37' E 024°09'1010.3
2014-Nov-26 10:25N 37°36' E 023°57'1011.2
2014-Nov-26 09:33N 37°39' E 023°45'1110.9
2014-Nov-26 08:34N 37°48' E 023°38'10 9.5
2014-Nov-26 07:33N 37°57' E 023°34'4 0.1
2014-Nov-24 18:06N 38°01' E 023°36'1 2.0
2014-Nov-24 17:33N 38°01' E 023°34'3 2.9
2014-Nov-24 16:28N 38°02' E 023°31'0 0.0
2014-Nov-24 12:31N 38°02' E 023°31'0 0.0
2014-Nov-24 11:32N 38°02' E 023°31'0 0.0
2014-Nov-24 10:32N 38°02' E 023°31'0 0.0
2014-Nov-24 09:32N 38°02' E 023°31'0 0.0
2014-Nov-24 08:22N 38°02' E 023°31'0 0.0
2014-Nov-24 07:16N 38°02' E 023°31'3 3.6
2014-Nov-24 06:33N 38°00' E 023°33'6 6.4
2014-Nov-24 05:33N 37°54' E 023°37'1110.5
2014-Nov-24 04:33N 37°45' E 023°43'1110.5
2014-Nov-24 03:32N 37°38' E 023°53'1111.0
2014-Nov-24 02:33N 37°37' E 024°06'2711.7
2014-Nov-24 00:17N 37°54' E 024°32'  
2014-Nov-19 20:05N 37°56' E 024°34'611.7
2014-Nov-19 19:33N 37°51' E 024°29'1111.4
2014-Nov-19 18:33N 37°44' E 024°18'1211.3
2014-Nov-19 17:32N 37°36' E 024°08'1010.1
2014-Nov-19 16:31N 37°36' E 023°55'1110.9
2014-Nov-19 15:33N 37°40' E 023°43'1010.6
2014-Nov-19 14:33N 37°50' E 023°37'9 8.6
2014-Nov-19 13:33N 37°58' E 023°33'4 0.2
2014-Nov-18 14:26N 38°02' E 023°36'4 5.1
2014-Nov-18 13:33N 37°57' E 023°34'1010.4
2014-Nov-18 12:33N 37°48' E 023°40'1111.4
2014-Nov-18 11:33N 37°39' E 023°49'1111.2
2014-Nov-18 10:33N 37°37' E 024°03'1410.9
2014-Nov-18 09:17N 37°44' E 024°18'1111.8
2014-Nov-18 08:23N 37°51' E 024°28'  
Track history (hours):
 
Tides and Currents Weather Stations Pressure Air Temp Water Temp Dewpoint Dewpoint Depression Visibility Wind Speed Wind Dir Waves Ship Positions

Irini

Last reported at 2014-Nov-26 13:25 UTC. Time now 2014-Nov-26 18:42 UTC.
Position N 37°51' E 024°29'.

Length 137 m; draft 7.3 m.

Type: Ship (hazmat cat A). MMSI: 240052000.

Date/timePositionNaut miles runAvg speedWind from/ knotsBaromVisibWave heightAir tempDewpointWater temp
2014-Nov-26 13:25N 37°51' E 024°29'1110.3
2014-Nov-26 12:23N 37°44' E 024°19'1010.4
2014-Nov-26 11:23N 37°37' E 024°09'1010.3
2014-Nov-26 10:25N 37°36' E 023°57'1011.2
2014-Nov-26 09:33N 37°39' E 023°45'1110.9
2014-Nov-26 08:34N 37°48' E 023°38'10 9.5
2014-Nov-26 07:33N 37°57' E 023°34'4 0.1
2014-Nov-24 18:06N 38°01' E 023°36'1 2.0
2014-Nov-24 17:33N 38°01' E 023°34'3 2.9
2014-Nov-24 16:28N 38°02' E 023°31'0 0.0
2014-Nov-24 12:31N 38°02' E 023°31'0 0.0
2014-Nov-24 11:32N 38°02' E 023°31'0 0.0
2014-Nov-24 10:32N 38°02' E 023°31'0 0.0
2014-Nov-24 09:32N 38°02' E 023°31'0 0.0
2014-Nov-24 08:22N 38°02' E 023°31'0 0.0
2014-Nov-24 07:16N 38°02' E 023°31'3 3.6
2014-Nov-24 06:33N 38°00' E 023°33'6 6.4
2014-Nov-24 05:33N 37°54' E 023°37'1110.5
2014-Nov-24 04:33N 37°45' E 023°43'1110.5
2014-Nov-24 03:32N 37°38' E 023°53'1111.0
2014-Nov-24 02:33N 37°37' E 024°06'2711.7
2014-Nov-24 00:17N 37°54' E 024°32'  
2014-Nov-19 20:05N 37°56' E 024°34'611.7
2014-Nov-19 19:33N 37°51' E 024°29'1111.4
2014-Nov-19 18:33N 37°44' E 024°18'1211.3
2014-Nov-19 17:32N 37°36' E 024°08'1010.1
2014-Nov-19 16:31N 37°36' E 023°55'1110.9
2014-Nov-19 15:33N 37°40' E 023°43'1010.6
2014-Nov-19 14:33N 37°50' E 023°37'9 8.6
2014-Nov-19 13:33N 37°58' E 023°33'4 0.2
2014-Nov-18 14:26N 38°02' E 023°36'4 5.1
2014-Nov-18 13:33N 37°57' E 023°34'1010.4
2014-Nov-18 12:33N 37°48' E 023°40'1111.4
2014-Nov-18 11:33N 37°39' E 023°49'1111.2
2014-Nov-18 10:33N 37°37' E 024°03'1410.9
2014-Nov-18 09:17N 37°44' E 024°18'1111.8
2014-Nov-18 08:23N 37°51' E 024°28'  

Dump ship's entire track history